sensor_id;sensor_type;location;lat;lon;timestamp;P1;durP1;ratioP1;P2;durP2;ratioP2
10335;SDS011;5213;53.548;9.930;2022-11-02T00:01:17;5.43;;;2.20;;
10335;SDS011;5213;53.548;9.930;2022-11-02T00:03:44;5.93;;;2.42;;
10335;SDS011;5213;53.548;9.930;2022-11-02T00:06:10;5.75;;;2.40;;
10335;SDS011;5213;53.548;9.930;2022-11-02T00:08:36;9.20;;;2.42;;
10335;SDS011;5213;53.548;9.930;2022-11-02T00:11:02;5.53;;;2.08;;
10335;SDS011;5213;53.548;9.930;2022-11-02T00:13:28;5.68;;;2.13;;
10335;SDS011;5213;53.548;9.930;2022-11-02T00:15:54;8.10;;;2.13;;
10335;SDS011;5213;53.548;9.930;2022-11-02T00:18:20;6.32;;;2.22;;
10335;SDS011;5213;53.548;9.930;2022-11-02T00:20:46;6.80;;;2.13;;
10335;SDS011;5213;53.548;9.930;2022-11-02T00:23:12;7.05;;;2.25;;
10335;SDS011;5213;53.548;9.930;2022-11-02T00:25:40;8.13;;;2.50;;
10335;SDS011;5213;53.548;9.930;2022-11-02T00:28:06;8.07;;;2.45;;
10335;SDS011;5213;53.548;9.930;2022-11-02T00:30:32;6.70;;;2.38;;
10335;SDS011;5213;53.548;9.930;2022-11-02T00:32:58;7.28;;;2.40;;
10335;SDS011;5213;53.548;9.930;2022-11-02T00:35:24;6.47;;;2.60;;
10335;SDS011;5213;53.548;9.930;2022-11-02T00:37:50;5.75;;;2.20;;
10335;SDS011;5213;53.548;9.930;2022-11-02T00:40:16;6.53;;;2.40;;
10335;SDS011;5213;53.548;9.930;2022-11-02T00:42:42;6.22;;;2.08;;
10335;SDS011;5213;53.548;9.930;2022-11-02T00:45:08;7.40;;;2.40;;
10335;SDS011;5213;53.548;9.930;2022-11-02T00:47:34;7.85;;;2.38;;
10335;SDS011;5213;53.548;9.930;2022-11-02T00:50:00;4.15;;;2.17;;
10335;SDS011;5213;53.548;9.930;2022-11-02T00:52:26;4.18;;;2.00;;
10335;SDS011;5213;53.548;9.930;2022-11-02T00:54:53;7.32;;;2.30;;
10335;SDS011;5213;53.548;9.930;2022-11-02T00:57:19;4.80;;;1.98;;
10335;SDS011;5213;53.548;9.930;2022-11-02T00:59:45;8.13;;;2.15;;
10335;SDS011;5213;53.548;9.930;2022-11-02T01:02:11;5.15;;;2.25;;
10335;SDS011;5213;53.548;9.930;2022-11-02T01:04:37;9.30;;;2.40;;
10335;SDS011;5213;53.548;9.930;2022-11-02T01:07:04;6.35;;;2.38;;
10335;SDS011;5213;53.548;9.930;2022-11-02T01:09:30;8.75;;;2.65;;
10335;SDS011;5213;53.548;9.930;2022-11-02T01:11:57;10.93;;;2.53;;
10335;SDS011;5213;53.548;9.930;2022-11-02T01:14:23;7.13;;;2.30;;
10335;SDS011;5213;53.548;9.930;2022-11-02T01:16:49;6.53;;;2.03;;
10335;SDS011;5213;53.548;9.930;2022-11-02T01:19:15;6.32;;;2.15;;
10335;SDS011;5213;53.548;9.930;2022-11-02T01:21:41;8.40;;;2.80;;
10335;SDS011;5213;53.548;9.930;2022-11-02T01:24:07;5.72;;;2.33;;
10335;SDS011;5213;53.548;9.930;2022-11-02T01:26:33;4.35;;;2.00;;
10335;SDS011;5213;53.548;9.930;2022-11-02T01:28:59;5.57;;;1.77;;
10335;SDS011;5213;53.548;9.930;2022-11-02T01:31:25;8.48;;;2.08;;
10335;SDS011;5213;53.548;9.930;2022-11-02T01:33:51;7.35;;;2.30;;
10335;SDS011;5213;53.548;9.930;2022-11-02T01:36:17;8.23;;;2.15;;
10335;SDS011;5213;53.548;9.930;2022-11-02T01:38:46;8.32;;;2.25;;
10335;SDS011;5213;53.548;9.930;2022-11-02T01:41:13;6.97;;;2.03;;
10335;SDS011;5213;53.548;9.930;2022-11-02T01:43:43;6.50;;;2.05;;
10335;SDS011;5213;53.548;9.930;2022-11-02T01:48:36;5.35;;;1.67;;
10335;SDS011;5213;53.548;9.930;2022-11-02T01:51:11;6.10;;;1.98;;
10335;SDS011;5213;53.548;9.930;2022-11-02T01:53:40;10.85;;;2.67;;
10335;SDS011;5213;53.548;9.930;2022-11-02T01:56:08;7.78;;;2.28;;
10335;SDS011;5213;53.548;9.930;2022-11-02T01:58:35;5.20;;;1.95;;
10335;SDS011;5213;53.548;9.930;2022-11-02T02:01:01;5.35;;;1.83;;
10335;SDS011;5213;53.548;9.930;2022-11-02T02:03:28;7.07;;;1.98;;
10335;SDS011;5213;53.548;9.930;2022-11-02T02:05:56;5.82;;;1.75;;
10335;SDS011;5213;53.548;9.930;2022-11-02T02:08:23;7.97;;;2.00;;
10335;SDS011;5213;53.548;9.930;2022-11-02T02:10:50;7.35;;;2.20;;
10335;SDS011;5213;53.548;9.930;2022-11-02T02:13:16;8.10;;;2.40;;
10335;SDS011;5213;53.548;9.930;2022-11-02T02:16:03;6.85;;;2.05;;
10335;SDS011;5213;53.548;9.930;2022-11-02T02:18:46;6.43;;;2.20;;
10335;SDS011;5213;53.548;9.930;2022-11-02T02:21:57;7.90;;;1.98;;
10335;SDS011;5213;53.548;9.930;2022-11-02T02:27:04;6.10;;;2.25;;
10335;SDS011;5213;53.548;9.930;2022-11-02T02:32:06;7.28;;;2.00;;
10335;SDS011;5213;53.548;9.930;2022-11-02T02:34:48;7.70;;;1.90;;
10335;SDS011;5213;53.548;9.930;2022-11-02T02:37:17;5.43;;;2.08;;
10335;SDS011;5213;53.548;9.930;2022-11-02T02:42:22;5.57;;;2.08;;
10335;SDS011;5213;53.548;9.930;2022-11-02T02:44:53;8.15;;;2.20;;
10335;SDS011;5213;53.548;9.930;2022-11-02T02:47:22;7.93;;;2.00;;
10335;SDS011;5213;53.548;9.930;2022-11-02T02:49:56;5.13;;;1.90;;
10335;SDS011;5213;53.548;9.930;2022-11-02T02:52:24;7.18;;;2.00;;
10335;SDS011;5213;53.548;9.930;2022-11-02T02:54:51;8.93;;;1.85;;
10335;SDS011;5213;53.548;9.930;2022-11-02T02:57:24;5.03;;;1.80;;
10335;SDS011;5213;53.548;9.930;2022-11-02T02:59:51;7.97;;;2.40;;
10335;SDS011;5213;53.548;9.930;2022-11-02T03:02:23;5.00;;;1.77;;
10335;SDS011;5213;53.548;9.930;2022-11-02T03:04:50;7.65;;;2.28;;
10335;SDS011;5213;53.548;9.930;2022-11-02T03:07:20;6.55;;;2.03;;
10335;SDS011;5213;53.548;9.930;2022-11-02T03:15:03;5.45;;;2.10;;
10335;SDS011;5213;53.548;9.930;2022-11-02T03:20:07;8.27;;;2.10;;
10335;SDS011;5213;53.548;9.930;2022-11-02T03:27:32;7.63;;;2.10;;
10335;SDS011;5213;53.548;9.930;2022-11-02T03:34:54;7.50;;;2.38;;
10335;SDS011;5213;53.548;9.930;2022-11-02T03:37:24;10.40;;;2.03;;
10335;SDS011;5213;53.548;9.930;2022-11-02T03:39:53;8.25;;;2.20;;
10335;SDS011;5213;53.548;9.930;2022-11-02T03:42:21;6.25;;;2.05;;
10335;SDS011;5213;53.548;9.930;2022-11-02T03:44:48;7.15;;;1.83;;
10335;SDS011;5213;53.548;9.930;2022-11-02T03:47:15;6.68;;;2.08;;
10335;SDS011;5213;53.548;9.930;2022-11-02T03:49:42;7.22;;;2.05;;
10335;SDS011;5213;53.548;9.930;2022-11-02T03:52:10;10.20;;;2.40;;
10335;SDS011;5213;53.548;9.930;2022-11-02T03:54:42;6.30;;;1.90;;
10335;SDS011;5213;53.548;9.930;2022-11-02T03:57:10;10.73;;;2.28;;
10335;SDS011;5213;53.548;9.930;2022-11-02T03:59:38;5.00;;;2.20;;
10335;SDS011;5213;53.548;9.930;2022-11-02T04:02:04;6.07;;;1.85;;
10335;SDS011;5213;53.548;9.930;2022-11-02T04:04:34;6.47;;;2.15;;
10335;SDS011;5213;53.548;9.930;2022-11-02T04:07:00;10.13;;;2.47;;
10335;SDS011;5213;53.548;9.930;2022-11-02T04:09:26;6.60;;;2.03;;
10335;SDS011;5213;53.548;9.930;2022-11-02T04:11:52;6.20;;;2.47;;
10335;SDS011;5213;53.548;9.930;2022-11-02T04:14:37;8.73;;;2.20;;
10335;SDS011;5213;53.548;9.930;2022-11-02T04:17:06;6.20;;;1.85;;
10335;SDS011;5213;53.548;9.930;2022-11-02T04:19:53;7.63;;;2.33;;
10335;SDS011;5213;53.548;9.930;2022-11-02T04:22:19;5.32;;;2.33;;
10335;SDS011;5213;53.548;9.930;2022-11-02T04:25:05;10.38;;;2.15;;
10335;SDS011;5213;53.548;9.930;2022-11-02T04:27:42;7.53;;;1.83;;
10335;SDS011;5213;53.548;9.930;2022-11-02T04:30:08;9.88;;;2.33;;
10335;SDS011;5213;53.548;9.930;2022-11-02T04:32:38;7.13;;;2.40;;
10335;SDS011;5213;53.548;9.930;2022-11-02T04:35:22;8.60;;;2.30;;
10335;SDS011;5213;53.548;9.930;2022-11-02T04:37:48;7.78;;;2.30;;
10335;SDS011;5213;53.548;9.930;2022-11-02T04:40:33;9.02;;;2.38;;
10335;SDS011;5213;53.548;9.930;2022-11-02T04:42:59;9.40;;;2.50;;
10335;SDS011;5213;53.548;9.930;2022-11-02T04:45:25;5.63;;;1.92;;
10335;SDS011;5213;53.548;9.930;2022-11-02T04:47:51;5.93;;;1.90;;
10335;SDS011;5213;53.548;9.930;2022-11-02T04:50:17;5.28;;;2.03;;
10335;SDS011;5213;53.548;9.930;2022-11-02T04:52:43;6.43;;;2.20;;
10335;SDS011;5213;53.548;9.930;2022-11-02T04:55:09;8.30;;;2.53;;
10335;SDS011;5213;53.548;9.930;2022-11-02T04:57:35;5.75;;;2.38;;
10335;SDS011;5213;53.548;9.930;2022-11-02T05:00:01;6.38;;;2.17;;
10335;SDS011;5213;53.548;9.930;2022-11-02T05:02:27;8.88;;;2.60;;
10335;SDS011;5213;53.548;9.930;2022-11-02T05:04:53;7.07;;;2.30;;
10335;SDS011;5213;53.548;9.930;2022-11-02T05:07:19;8.60;;;2.47;;
10335;SDS011;5213;53.548;9.930;2022-11-02T05:09:45;6.38;;;2.28;;
10335;SDS011;5213;53.548;9.930;2022-11-02T05:12:11;6.25;;;2.28;;
10335;SDS011;5213;53.548;9.930;2022-11-02T05:14:37;11.05;;;2.63;;
10335;SDS011;5213;53.548;9.930;2022-11-02T05:17:03;7.93;;;2.30;;
10335;SDS011;5213;53.548;9.930;2022-11-02T05:19:29;9.02;;;2.40;;
10335;SDS011;5213;53.548;9.930;2022-11-02T05:21:55;7.43;;;2.10;;
10335;SDS011;5213;53.548;9.930;2022-11-02T05:24:21;5.85;;;2.30;;
10335;SDS011;5213;53.548;9.930;2022-11-02T05:26:47;7.25;;;2.20;;
10335;SDS011;5213;53.548;9.930;2022-11-02T05:29:13;9.30;;;2.45;;
10335;SDS011;5213;53.548;9.930;2022-11-02T05:31:39;8.00;;;2.55;;
10335;SDS011;5213;53.548;9.930;2022-11-02T05:34:05;7.93;;;2.20;;
10335;SDS011;5213;53.548;9.930;2022-11-02T05:36:31;6.28;;;2.38;;
10335;SDS011;5213;53.548;9.930;2022-11-02T05:38:57;9.27;;;2.22;;
10335;SDS011;5213;53.548;9.930;2022-11-02T05:41:24;10.52;;;2.75;;
10335;SDS011;5213;53.548;9.930;2022-11-02T05:43:49;10.00;;;2.70;;
10335;SDS011;5213;53.548;9.930;2022-11-02T05:46:15;8.73;;;2.70;;
10335;SDS011;5213;53.548;9.930;2022-11-02T05:48:42;6.28;;;2.75;;
10335;SDS011;5213;53.548;9.930;2022-11-02T05:51:09;8.88;;;2.42;;
10335;SDS011;5213;53.548;9.930;2022-11-02T05:53:35;8.20;;;2.58;;
10335;SDS011;5213;53.548;9.930;2022-11-02T05:56:03;7.60;;;2.50;;
10335;SDS011;5213;53.548;9.930;2022-11-02T05:58:29;8.25;;;2.50;;
10335;SDS011;5213;53.548;9.930;2022-11-02T06:00:57;9.77;;;2.60;;
10335;SDS011;5213;53.548;9.930;2022-11-02T06:03:23;7.60;;;2.47;;
10335;SDS011;5213;53.548;9.930;2022-11-02T06:05:56;6.53;;;2.30;;
10335;SDS011;5213;53.548;9.930;2022-11-02T06:08:22;6.95;;;2.20;;
10335;SDS011;5213;53.548;9.930;2022-11-02T06:10:48;7.88;;;2.65;;
10335;SDS011;5213;53.548;9.930;2022-11-02T06:13:14;10.05;;;2.35;;
10335;SDS011;5213;53.548;9.930;2022-11-02T06:15:40;8.93;;;2.28;;
10335;SDS011;5213;53.548;9.930;2022-11-02T06:18:06;7.72;;;2.55;;
10335;SDS011;5213;53.548;9.930;2022-11-02T06:20:32;9.07;;;2.17;;
10335;SDS011;5213;53.548;9.930;2022-11-02T06:22:58;7.40;;;2.47;;
10335;SDS011;5213;53.548;9.930;2022-11-02T06:25:24;7.53;;;2.50;;
10335;SDS011;5213;53.548;9.930;2022-11-02T06:27:51;6.05;;;2.40;;
10335;SDS011;5213;53.548;9.930;2022-11-02T06:30:19;6.20;;;2.47;;
10335;SDS011;5213;53.548;9.930;2022-11-02T06:32:45;7.15;;;2.80;;
10335;SDS011;5213;53.548;9.930;2022-11-02T06:35:12;8.20;;;2.60;;
10335;SDS011;5213;53.548;9.930;2022-11-02T06:37:38;8.77;;;3.03;;
10335;SDS011;5213;53.548;9.930;2022-11-02T06:40:04;7.13;;;3.00;;
10335;SDS011;5213;53.548;9.930;2022-11-02T06:42:30;8.27;;;2.88;;
10335;SDS011;5213;53.548;9.930;2022-11-02T06:44:56;7.32;;;2.75;;
10335;SDS011;5213;53.548;9.930;2022-11-02T06:47:33;9.40;;;2.60;;
10335;SDS011;5213;53.548;9.930;2022-11-02T06:49:59;8.77;;;2.75;;
10335;SDS011;5213;53.548;9.930;2022-11-02T06:52:26;7.55;;;2.80;;
10335;SDS011;5213;53.548;9.930;2022-11-02T06:54:52;10.35;;;2.60;;
10335;SDS011;5213;53.548;9.930;2022-11-02T06:57:18;9.25;;;2.70;;
10335;SDS011;5213;53.548;9.930;2022-11-02T06:59:44;9.68;;;2.33;;
10335;SDS011;5213;53.548;9.930;2022-11-02T07:02:10;6.70;;;2.50;;
10335;SDS011;5213;53.548;9.930;2022-11-02T07:04:36;10.13;;;2.03;;
10335;SDS011;5213;53.548;9.930;2022-11-02T07:07:02;10.43;;;2.42;;
10335;SDS011;5213;53.548;9.930;2022-11-02T07:09:28;9.48;;;2.25;;
10335;SDS011;5213;53.548;9.930;2022-11-02T07:11:54;9.32;;;2.30;;
10335;SDS011;5213;53.548;9.930;2022-11-02T07:14:20;9.55;;;2.38;;
10335;SDS011;5213;53.548;9.930;2022-11-02T07:16:46;10.07;;;2.40;;
10335;SDS011;5213;53.548;9.930;2022-11-02T07:19:12;8.55;;;2.25;;
10335;SDS011;5213;53.548;9.930;2022-11-02T07:21:38;4.78;;;2.50;;
10335;SDS011;5213;53.548;9.930;2022-11-02T07:24:04;6.68;;;2.65;;
10335;SDS011;5213;53.548;9.930;2022-11-02T07:26:30;10.07;;;3.13;;
10335;SDS011;5213;53.548;9.930;2022-11-02T07:28:56;10.48;;;3.05;;
10335;SDS011;5213;53.548;9.930;2022-11-02T07:31:22;7.03;;;2.75;;
10335;SDS011;5213;53.548;9.930;2022-11-02T07:33:48;9.38;;;3.00;;
10335;SDS011;5213;53.548;9.930;2022-11-02T07:36:14;10.52;;;3.03;;
10335;SDS011;5213;53.548;9.930;2022-11-02T07:38:41;6.68;;;2.65;;
10335;SDS011;5213;53.548;9.930;2022-11-02T07:41:07;11.05;;;3.17;;
10335;SDS011;5213;53.548;9.930;2022-11-02T07:43:33;8.77;;;3.00;;
10335;SDS011;5213;53.548;9.930;2022-11-02T07:46:02;8.35;;;3.20;;
10335;SDS011;5213;53.548;9.930;2022-11-02T07:48:28;5.72;;;2.50;;
10335;SDS011;5213;53.548;9.930;2022-11-02T07:50:57;6.90;;;2.40;;
10335;SDS011;5213;53.548;9.930;2022-11-02T07:53:24;6.82;;;2.50;;
10335;SDS011;5213;53.548;9.930;2022-11-02T07:55:50;7.60;;;2.58;;
10335;SDS011;5213;53.548;9.930;2022-11-02T07:58:16;7.60;;;2.35;;
10335;SDS011;5213;53.548;9.930;2022-11-02T08:00:42;7.82;;;2.47;;
10335;SDS011;5213;53.548;9.930;2022-11-02T08:03:08;7.03;;;2.70;;
10335;SDS011;5213;53.548;9.930;2022-11-02T08:05:36;8.95;;;2.45;;
10335;SDS011;5213;53.548;9.930;2022-11-02T08:08:03;11.25;;;2.90;;
10335;SDS011;5213;53.548;9.930;2022-11-02T08:10:30;11.00;;;3.00;;
10335;SDS011;5213;53.548;9.930;2022-11-02T08:12:56;6.25;;;2.67;;
10335;SDS011;5213;53.548;9.930;2022-11-02T08:15:22;9.32;;;2.80;;
10335;SDS011;5213;53.548;9.930;2022-11-02T08:17:58;6.80;;;2.15;;
10335;SDS011;5213;53.548;9.930;2022-11-02T08:20:25;12.85;;;2.60;;
10335;SDS011;5213;53.548;9.930;2022-11-02T08:22:51;7.25;;;2.10;;
10335;SDS011;5213;53.548;9.930;2022-11-02T08:25:17;9.75;;;2.45;;
10335;SDS011;5213;53.548;9.930;2022-11-02T08:27:43;8.70;;;2.38;;
10335;SDS011;5213;53.548;9.930;2022-11-02T08:30:09;8.18;;;2.35;;
10335;SDS011;5213;53.548;9.930;2022-11-02T08:32:35;5.35;;;2.20;;
10335;SDS011;5213;53.548;9.930;2022-11-02T08:35:01;9.57;;;2.45;;
10335;SDS011;5213;53.548;9.930;2022-11-02T08:37:28;8.27;;;2.28;;
10335;SDS011;5213;53.548;9.930;2022-11-02T08:39:54;6.10;;;2.10;;
10335;SDS011;5213;53.548;9.930;2022-11-02T08:42:20;9.25;;;2.05;;
10335;SDS011;5213;53.548;9.930;2022-11-02T08:44:46;7.63;;;2.00;;
10335;SDS011;5213;53.548;9.930;2022-11-02T08:47:12;6.18;;;2.40;;
10335;SDS011;5213;53.548;9.930;2022-11-02T08:49:39;8.27;;;2.28;;
10335;SDS011;5213;53.548;9.930;2022-11-02T08:52:05;5.45;;;2.25;;
10335;SDS011;5213;53.548;9.930;2022-11-02T08:54:32;8.65;;;1.80;;
10335;SDS011;5213;53.548;9.930;2022-11-02T08:56:58;7.13;;;2.22;;
10335;SDS011;5213;53.548;9.930;2022-11-02T08:59:23;7.72;;;2.20;;
10335;SDS011;5213;53.548;9.930;2022-11-02T09:01:49;8.52;;;2.42;;
10335;SDS011;5213;53.548;9.930;2022-11-02T09:04:15;5.70;;;2.00;;
10335;SDS011;5213;53.548;9.930;2022-11-02T09:06:41;6.32;;;1.70;;
10335;SDS011;5213;53.548;9.930;2022-11-02T09:09:07;6.72;;;1.95;;
10335;SDS011;5213;53.548;9.930;2022-11-02T09:11:34;4.65;;;1.80;;
10335;SDS011;5213;53.548;9.930;2022-11-02T09:14:00;6.32;;;2.00;;
10335;SDS011;5213;53.548;9.930;2022-11-02T09:16:26;8.25;;;2.40;;
10335;SDS011;5213;53.548;9.930;2022-11-02T09:18:52;7.13;;;2.00;;
10335;SDS011;5213;53.548;9.930;2022-11-02T09:21:18;7.32;;;2.03;;
10335;SDS011;5213;53.548;9.930;2022-11-02T09:23:44;7.32;;;1.98;;
10335;SDS011;5213;53.548;9.930;2022-11-02T09:26:13;5.95;;;2.17;;
10335;SDS011;5213;53.548;9.930;2022-11-02T09:28:39;5.72;;;2.28;;
10335;SDS011;5213;53.548;9.930;2022-11-02T09:31:05;5.63;;;1.73;;
10335;SDS011;5213;53.548;9.930;2022-11-02T09:33:31;8.23;;;1.85;;
10335;SDS011;5213;53.548;9.930;2022-11-02T09:36:01;5.78;;;2.15;;
10335;SDS011;5213;53.548;9.930;2022-11-02T09:38:27;6.40;;;1.80;;
10335;SDS011;5213;53.548;9.930;2022-11-02T09:43:47;6.35;;;1.90;;
10335;SDS011;5213;53.548;9.930;2022-11-02T09:46:17;5.60;;;2.10;;
10335;SDS011;5213;53.548;9.930;2022-11-02T09:48:47;3.45;;;1.63;;
10335;SDS011;5213;53.548;9.930;2022-11-02T09:51:34;10.20;;;2.22;;
10335;SDS011;5213;53.548;9.930;2022-11-02T09:56:28;7.25;;;2.00;;
10335;SDS011;5213;53.548;9.930;2022-11-02T10:02:10;4.80;;;2.25;;
10335;SDS011;5213;53.548;9.930;2022-11-02T10:06:41;5.53;;;1.90;;
10335;SDS011;5213;53.548;9.930;2022-11-02T10:09:10;7.85;;;1.98;;
10335;SDS011;5213;53.548;9.930;2022-11-02T10:11:44;9.50;;;2.20;;
10335;SDS011;5213;53.548;9.930;2022-11-02T10:14:23;6.47;;;2.25;;
10335;SDS011;5213;53.548;9.930;2022-11-02T10:17:01;9.63;;;2.20;;
10335;SDS011;5213;53.548;9.930;2022-11-02T10:19:29;6.45;;;2.40;;
10335;SDS011;5213;53.548;9.930;2022-11-02T10:21:59;6.40;;;2.20;;
10335;SDS011;5213;53.548;9.930;2022-11-02T10:26:55;6.72;;;2.33;;
10335;SDS011;5213;53.548;9.930;2022-11-02T10:32:09;4.82;;;1.67;;
10335;SDS011;5213;53.548;9.930;2022-11-02T10:34:36;4.85;;;2.03;;
10335;SDS011;5213;53.548;9.930;2022-11-02T10:53:02;4.45;;;1.80;;
10335;SDS011;5213;53.548;9.930;2022-11-02T10:56:15;8.43;;;2.00;;
10335;SDS011;5213;53.548;9.930;2022-11-02T10:58:16;5.38;;;1.83;;
10335;SDS011;5213;53.548;9.930;2022-11-02T11:00:44;5.95;;;1.75;;
10335;SDS011;5213;53.548;9.930;2022-11-02T11:03:15;4.47;;;2.05;;
10335;SDS011;5213;53.548;9.930;2022-11-02T11:08:19;4.57;;;1.60;;
10335;SDS011;5213;53.548;9.930;2022-11-02T11:10:51;5.03;;;1.55;;
10335;SDS011;5213;53.548;9.930;2022-11-02T11:13:19;3.83;;;1.73;;
10335;SDS011;5213;53.548;9.930;2022-11-02T11:15:48;4.38;;;1.70;;
10335;SDS011;5213;53.548;9.930;2022-11-02T11:18:18;5.38;;;1.83;;
10335;SDS011;5213;53.548;9.930;2022-11-02T11:20:44;3.38;;;1.70;;
10335;SDS011;5213;53.548;9.930;2022-11-02T11:25:40;5.82;;;1.60;;
10335;SDS011;5213;53.548;9.930;2022-11-02T11:31:04;3.90;;;1.30;;
10335;SDS011;5213;53.548;9.930;2022-11-02T11:33:31;4.00;;;1.27;;
10335;SDS011;5213;53.548;9.930;2022-11-02T11:35:58;3.58;;;1.60;;
10335;SDS011;5213;53.548;9.930;2022-11-02T11:38:24;4.47;;;1.40;;
10335;SDS011;5213;53.548;9.930;2022-11-02T11:40:52;4.30;;;1.73;;
10335;SDS011;5213;53.548;9.930;2022-11-02T11:43:19;4.43;;;1.48;;
10335;SDS011;5213;53.548;9.930;2022-11-02T11:45:56;3.95;;;1.45;;
10335;SDS011;5213;53.548;9.930;2022-11-02T11:48:41;4.10;;;1.30;;
10335;SDS011;5213;53.548;9.930;2022-11-02T11:54:02;3.90;;;1.35;;
10335;SDS011;5213;53.548;9.930;2022-11-02T11:56:28;5.78;;;1.45;;
10335;SDS011;5213;53.548;9.930;2022-11-02T11:58:54;3.42;;;1.30;;
10335;SDS011;5213;53.548;9.930;2022-11-02T12:01:20;2.83;;;1.38;;
10335;SDS011;5213;53.548;9.930;2022-11-02T12:03:54;2.88;;;1.17;;
10335;SDS011;5213;53.548;9.930;2022-11-02T12:12:00;2.03;;;1.00;;
10335;SDS011;5213;53.548;9.930;2022-11-02T12:27:05;4.82;;;1.40;;
10335;SDS011;5213;53.548;9.930;2022-11-02T12:29:39;5.05;;;1.88;;
10335;SDS011;5213;53.548;9.930;2022-11-02T12:42:41;3.65;;;1.55;;
10335;SDS011;5213;53.548;9.930;2022-11-02T12:47:59;5.57;;;1.40;;
10335;SDS011;5213;53.548;9.930;2022-11-02T12:55:40;4.93;;;1.80;;
10335;SDS011;5213;53.548;9.930;2022-11-02T13:00:44;4.85;;;1.40;;
10335;SDS011;5213;53.548;9.930;2022-11-02T13:05:49;4.18;;;1.38;;
10335;SDS011;5213;53.548;9.930;2022-11-02T13:08:31;4.72;;;1.63;;
10335;SDS011;5213;53.548;9.930;2022-11-02T13:10:59;5.75;;;1.75;;
10335;SDS011;5213;53.548;9.930;2022-11-02T13:13:41;4.63;;;1.40;;
10335;SDS011;5213;53.548;9.930;2022-11-02T13:16:08;3.78;;;1.40;;
10335;SDS011;5213;53.548;9.930;2022-11-02T13:18:41;8.25;;;1.70;;
10335;SDS011;5213;53.548;9.930;2022-11-02T13:21:09;7.90;;;1.65;;
10335;SDS011;5213;53.548;9.930;2022-11-02T13:23:41;6.03;;;1.90;;
10335;SDS011;5213;53.548;9.930;2022-11-02T13:26:13;6.72;;;1.77;;
10335;SDS011;5213;53.548;9.930;2022-11-02T13:28:46;5.35;;;1.67;;
10335;SDS011;5213;53.548;9.930;2022-11-02T13:31:14;4.22;;;1.50;;
10335;SDS011;5213;53.548;9.930;2022-11-02T13:33:48;5.03;;;1.70;;
10335;SDS011;5213;53.548;9.930;2022-11-02T13:36:15;5.55;;;1.65;;
10335;SDS011;5213;53.548;9.930;2022-11-02T13:52:00;4.47;;;1.30;;
10335;SDS011;5213;53.548;9.930;2022-11-02T13:54:28;5.65;;;1.60;;
10335;SDS011;5213;53.548;9.930;2022-11-02T13:56:55;3.85;;;1.30;;
10335;SDS011;5213;53.548;9.930;2022-11-02T13:59:25;4.72;;;1.42;;
10335;SDS011;5213;53.548;9.930;2022-11-02T14:01:52;4.90;;;1.75;;
10335;SDS011;5213;53.548;9.930;2022-11-02T14:04:18;6.13;;;1.80;;
10335;SDS011;5213;53.548;9.930;2022-11-02T14:07:02;4.40;;;1.50;;
10335;SDS011;5213;53.548;9.930;2022-11-02T14:09:39;9.05;;;1.92;;
10335;SDS011;5213;53.548;9.930;2022-11-02T14:14:35;6.10;;;2.40;;
10335;SDS011;5213;53.548;9.930;2022-11-02T14:17:11;4.28;;;1.83;;
10335;SDS011;5213;53.548;9.930;2022-11-02T14:22:16;6.15;;;2.00;;
10335;SDS011;5213;53.548;9.930;2022-11-02T14:39:43;5.40;;;1.88;;
10335;SDS011;5213;53.548;9.930;2022-11-02T14:44:58;8.02;;;1.80;;
10335;SDS011;5213;53.548;9.930;2022-11-02T14:47:28;5.30;;;1.92;;
10335;SDS011;5213;53.548;9.930;2022-11-02T14:49:55;4.13;;;1.75;;
10335;SDS011;5213;53.548;9.930;2022-11-02T14:52:26;6.22;;;2.15;;
10335;SDS011;5213;53.548;9.930;2022-11-02T14:57:23;5.75;;;1.90;;
10335;SDS011;5213;53.548;9.930;2022-11-02T14:59:51;7.80;;;1.60;;
10335;SDS011;5213;53.548;9.930;2022-11-02T15:04:51;5.40;;;1.75;;
10335;SDS011;5213;53.548;9.930;2022-11-02T15:07:23;4.93;;;1.60;;
10335;SDS011;5213;53.548;9.930;2022-11-02T15:09:55;6.22;;;1.60;;
10335;SDS011;5213;53.548;9.930;2022-11-02T15:12:29;7.25;;;1.73;;
10335;SDS011;5213;53.548;9.930;2022-11-02T15:22:52;10.02;;;1.75;;
10335;SDS011;5213;53.548;9.930;2022-11-02T15:25:20;4.50;;;1.58;;
10335;SDS011;5213;53.548;9.930;2022-11-02T15:27:47;6.03;;;1.92;;
10335;SDS011;5213;53.548;9.930;2022-11-02T15:30:15;3.35;;;1.48;;
10335;SDS011;5213;53.548;9.930;2022-11-02T15:32:43;6.53;;;1.60;;
10335;SDS011;5213;53.548;9.930;2022-11-02T15:35:18;6.00;;;1.75;;
10335;SDS011;5213;53.548;9.930;2022-11-02T15:37:45;5.47;;;1.50;;
10335;SDS011;5213;53.548;9.930;2022-11-02T15:40:21;4.57;;;1.65;;
10335;SDS011;5213;53.548;9.930;2022-11-02T15:42:59;7.03;;;1.80;;
10335;SDS011;5213;53.548;9.930;2022-11-02T15:55:41;5.28;;;1.63;;
10335;SDS011;5213;53.548;9.930;2022-11-02T15:58:27;7.63;;;1.90;;
10335;SDS011;5213;53.548;9.930;2022-11-02T16:01:15;11.07;;;2.08;;
10335;SDS011;5213;53.548;9.930;2022-11-02T16:03:46;6.22;;;1.75;;
10335;SDS011;5213;53.548;9.930;2022-11-02T16:06:13;5.88;;;1.85;;
10335;SDS011;5213;53.548;9.930;2022-11-02T16:08:40;6.00;;;1.90;;
10335;SDS011;5213;53.548;9.930;2022-11-02T16:11:12;6.40;;;1.77;;
10335;SDS011;5213;53.548;9.930;2022-11-02T16:13:41;5.50;;;1.80;;
10335;SDS011;5213;53.548;9.930;2022-11-02T16:16:07;4.40;;;1.90;;
10335;SDS011;5213;53.548;9.930;2022-11-02T16:18:36;4.13;;;1.80;;
10335;SDS011;5213;53.548;9.930;2022-11-02T16:21:03;7.63;;;1.88;;
10335;SDS011;5213;53.548;9.930;2022-11-02T16:23:31;5.40;;;1.75;;
10335;SDS011;5213;53.548;9.930;2022-11-02T16:25:58;5.60;;;2.00;;
10335;SDS011;5213;53.548;9.930;2022-11-02T16:28:28;5.07;;;1.85;;
10335;SDS011;5213;53.548;9.930;2022-11-02T16:31:06;3.38;;;1.33;;
10335;SDS011;5213;53.548;9.930;2022-11-02T16:33:37;5.53;;;1.73;;
10335;SDS011;5213;53.548;9.930;2022-11-02T16:36:04;11.00;;;1.70;;
10335;SDS011;5213;53.548;9.930;2022-11-02T16:38:31;5.55;;;2.20;;
10335;SDS011;5213;53.548;9.930;2022-11-02T16:40:57;6.82;;;1.92;;
10335;SDS011;5213;53.548;9.930;2022-11-02T16:43:24;5.75;;;1.83;;
10335;SDS011;5213;53.548;9.930;2022-11-02T16:45:51;6.53;;;1.98;;
10335;SDS011;5213;53.548;9.930;2022-11-02T16:48:24;5.15;;;1.90;;
10335;SDS011;5213;53.548;9.930;2022-11-02T16:53:35;3.10;;;1.50;;
10335;SDS011;5213;53.548;9.930;2022-11-02T16:56:15;7.47;;;2.17;;
10335;SDS011;5213;53.548;9.930;2022-11-02T16:58:48;11.02;;;2.20;;
10335;SDS011;5213;53.548;9.930;2022-11-02T17:01:23;6.10;;;1.77;;
10335;SDS011;5213;53.548;9.930;2022-11-02T17:03:49;7.70;;;2.13;;
10335;SDS011;5213;53.548;9.930;2022-11-02T17:06:15;5.10;;;2.00;;
10335;SDS011;5213;53.548;9.930;2022-11-02T17:08:42;7.40;;;2.50;;
10335;SDS011;5213;53.548;9.930;2022-11-02T17:11:13;5.78;;;2.25;;
10335;SDS011;5213;53.548;9.930;2022-11-02T17:13:43;8.00;;;3.28;;
10335;SDS011;5213;53.548;9.930;2022-11-02T17:16:10;8.20;;;2.78;;
10335;SDS011;5213;53.548;9.930;2022-11-02T17:18:36;8.05;;;2.80;;
10335;SDS011;5213;53.548;9.930;2022-11-02T17:23:42;7.15;;;2.80;;
10335;SDS011;5213;53.548;9.930;2022-11-02T17:28:47;10.65;;;3.70;;
10335;SDS011;5213;53.548;9.930;2022-11-02T17:31:20;7.50;;;3.33;;
10335;SDS011;5213;53.548;9.930;2022-11-02T17:33:47;9.20;;;3.50;;
10335;SDS011;5213;53.548;9.930;2022-11-02T17:36:13;7.40;;;3.40;;
10335;SDS011;5213;53.548;9.930;2022-11-02T17:38:40;5.25;;;3.38;;
10335;SDS011;5213;53.548;9.930;2022-11-02T17:41:08;5.90;;;3.17;;
10335;SDS011;5213;53.548;9.930;2022-11-02T17:43:55;7.47;;;2.95;;
10335;SDS011;5213;53.548;9.930;2022-11-02T17:46:21;9.35;;;2.45;;
10335;SDS011;5213;53.548;9.930;2022-11-02T17:48:47;7.78;;;2.33;;
10335;SDS011;5213;53.548;9.930;2022-11-02T17:51:13;4.97;;;2.60;;
10335;SDS011;5213;53.548;9.930;2022-11-02T17:53:39;6.57;;;2.15;;
10335;SDS011;5213;53.548;9.930;2022-11-02T17:56:06;4.43;;;2.00;;
10335;SDS011;5213;53.548;9.930;2022-11-02T17:58:32;6.18;;;2.42;;
10335;SDS011;5213;53.548;9.930;2022-11-02T18:00:58;5.68;;;2.30;;
10335;SDS011;5213;53.548;9.930;2022-11-02T18:03:25;6.55;;;2.80;;
10335;SDS011;5213;53.548;9.930;2022-11-02T18:05:51;7.72;;;3.20;;
10335;SDS011;5213;53.548;9.930;2022-11-02T18:08:17;9.23;;;3.33;;